createdAt,value
2019-04-07T00:02:28.223Z,26.77
2019-04-07T00:05:09.332Z,25.73
2019-04-07T00:07:30.134Z,24.07
2019-04-07T00:10:00.467Z,25.83
2019-04-07T00:12:31.046Z,27.17
2019-04-07T00:15:01.661Z,27.93
2019-04-07T00:17:32.257Z,28.53
2019-04-07T00:20:02.628Z,28.97
2019-04-07T00:22:33.591Z,27.80
2019-04-07T00:25:04.320Z,28.60
2019-04-07T00:27:34.303Z,25.17
2019-04-07T00:30:04.952Z,26.43
2019-04-07T00:32:35.064Z,27.43
2019-04-07T00:35:05.993Z,27.03
2019-04-07T00:37:36.308Z,29.07
2019-04-07T00:40:07.457Z,28.83
2019-04-07T00:42:38.114Z,30.23
2019-04-07T00:45:08.719Z,28.77
2019-04-07T00:47:39.049Z,29.43
2019-04-07T00:50:11.963Z,28.27
2019-04-07T00:52:42.684Z,27.67
2019-04-07T00:55:13.277Z,29.47
2019-04-07T00:57:44.079Z,28.10
2019-04-07T01:00:17.066Z,28.70
2019-04-07T01:02:47.488Z,28.83
2019-04-07T01:05:18.001Z,28.20
2019-04-07T01:07:48.773Z,27.63
2019-04-07T01:10:21.693Z,27.93
2019-04-07T01:12:52.177Z,28.20
2019-04-07T01:15:23.016Z,27.93
2019-04-07T01:17:53.356Z,29.40
2019-04-07T01:20:24.347Z,29.60
2019-04-07T01:22:54.179Z,28.70
2019-04-07T01:25:24.212Z,29.60
2019-04-07T01:27:54.447Z,30.17
2019-04-07T01:30:25.265Z,31.30
2019-04-07T01:32:56.215Z,30.57
2019-04-07T01:35:26.739Z,29.17
2019-04-07T01:37:57.061Z,29.30
2019-04-07T01:40:27.243Z,29.40
2019-04-07T01:43:17.949Z,31.00
2019-04-07T01:46:11.435Z,30.10
2019-04-07T01:48:54.357Z,29.90
2019-04-07T01:51:42.269Z,29.70
2019-04-07T01:54:29.572Z,30.77
2019-04-07T01:57:36.994Z,32.03
2019-04-07T02:00:13.776Z,28.97
2019-04-07T02:03:12.359Z,29.50
2019-04-07T02:06:03.681Z,30.73
2019-04-07T02:08:43.544Z,30.73
2019-04-07T02:11:19.761Z,30.53
2019-04-07T02:13:58.351Z,32.40
2019-04-07T02:16:35.646Z,27.83
2019-04-07T02:19:24.102Z,30.20
2019-04-07T02:22:25.638Z,31.37
2019-04-07T02:25:14.785Z,32.20
2019-04-07T02:28:03.419Z,30.17
2019-04-07T02:30:52.278Z,30.20
2019-04-07T02:33:31.515Z,32.50
2019-04-07T02:36:30.771Z,30.90
2019-04-07T02:39:18.049Z,30.17
2019-04-07T02:41:55.670Z,30.20
2019-04-07T02:44:54.009Z,32.10
2019-04-07T02:47:46.852Z,30.13
2019-04-07T02:50:34.989Z,30.60
2019-04-07T02:53:21.635Z,31.63
2019-04-07T02:56:01.573Z,30.17
2019-04-07T02:58:58.131Z,29.60
2019-04-07T03:01:57.259Z,31.70
2019-04-07T03:04:46.072Z,32.00
2019-04-07T03:07:25.066Z,31.67
2019-04-07T03:10:29.297Z,32.37
2019-04-07T03:13:16.875Z,33.37
2019-04-07T03:15:54.719Z,32.53
2019-04-07T03:19:00.188Z,34.53
2019-04-07T03:21:55.499Z,33.70
2019-04-07T03:24:44.539Z,33.37
2019-04-07T03:27:36.818Z,31.07
2019-04-07T03:30:28.509Z,32.93
2019-04-07T03:33:14.238Z,31.93
2019-04-07T03:36:05.851Z,32.40
2019-04-07T03:38:54.050Z,31.47
2019-04-07T03:41:52.626Z,33.30
2019-04-07T03:44:36.551Z,34.47
2019-04-07T03:47:30.126Z,32.47
2019-04-07T03:50:21.825Z,34.50
2019-04-07T03:52:59.156Z,32.57
2019-04-07T03:55:46.892Z,33.13
2019-04-07T03:58:44.813Z,32.17
2019-04-07T04:01:35.395Z,34.47
2019-04-07T04:04:28.596Z,32.40
2019-04-07T04:07:20.224Z,35.07
2019-04-07T04:10:03.381Z,33.10
2019-04-07T04:12:56.483Z,33.47
2019-04-07T04:15:40.331Z,33.03
2019-04-07T04:18:10.199Z,36.10
2019-04-07T04:20:40.886Z,34.43
2019-04-07T04:23:12.588Z,33.53
2019-04-07T04:25:43.053Z,34.23
2019-04-07T04:28:14.331Z,36.03
2019-04-07T04:30:44.975Z,34.07
2019-04-07T04:33:15.885Z,35.57
2019-04-07T04:35:46.271Z,35.60
2019-04-07T04:38:17.715Z,34.30
2019-04-07T04:40:49.350Z,35.80
2019-04-07T04:43:19.794Z,33.50
2019-04-07T04:45:50.467Z,34.37
2019-04-07T04:48:20.550Z,34.33
2019-04-07T04:50:50.929Z,33.67
2019-04-07T04:53:22.535Z,33.23
2019-04-07T04:55:53.552Z,34.57
2019-04-07T04:58:24.711Z,34.33
2019-04-07T05:00:55.465Z,33.70
2019-04-07T05:03:26.005Z,33.73
2019-04-07T05:05:56.379Z,31.80
2019-04-07T05:08:29.555Z,31.43
2019-04-07T05:11:00.057Z,32.53
2019-04-07T05:13:30.609Z,29.40
2019-04-07T05:16:01.825Z,30.60
2019-04-07T05:18:32.416Z,28.87
2019-04-07T05:21:03.101Z,29.10
2019-04-07T05:23:33.329Z,27.47
2019-04-07T05:26:03.611Z,25.30
2019-04-07T05:28:36.931Z,27.33
2019-04-07T05:31:07.227Z,26.23
2019-04-07T05:33:38.717Z,26.57
2019-04-07T05:36:08.870Z,25.50
2019-04-07T05:38:39.541Z,24.77
2019-04-07T05:41:09.588Z,24.77
2019-04-07T05:43:39.576Z,25.00
2019-04-07T05:46:10.041Z,24.60
2019-04-07T05:48:40.396Z,23.97
2019-04-07T05:51:10.894Z,25.17
2019-04-07T05:53:44.083Z,23.77
2019-04-07T05:56:13.434Z,23.43
2019-04-07T05:58:43.875Z,22.33
2019-04-07T06:01:14.089Z,22.77
2019-04-07T06:03:43.992Z,24.07
2019-04-07T06:06:14.597Z,23.20
2019-04-07T06:08:47.037Z,22.93
2019-04-07T06:11:17.009Z,22.83
2019-04-07T06:13:47.511Z,21.70
2019-04-07T06:16:18.537Z,23.37
2019-04-07T06:18:50.067Z,21.90
2019-04-07T06:21:20.004Z,23.33
2019-04-07T06:23:49.848Z,22.43
2019-04-07T06:26:19.835Z,23.03
2019-04-07T06:28:53.255Z,21.80
2019-04-07T06:31:24.397Z,22.07
2019-04-07T06:33:54.903Z,21.57
2019-04-07T06:36:26.587Z,22.97
2019-04-07T06:38:56.936Z,23.07
2019-04-07T06:41:29.516Z,22.20
2019-04-07T06:44:09.524Z,20.57
2019-04-07T06:46:45.820Z,21.27
2019-04-07T06:49:22.833Z,21.90
2019-04-07T06:52:04.698Z,20.30
2019-04-07T06:54:55.699Z,21.87
2019-04-07T06:58:00.341Z,19.97
2019-04-07T07:00:40.833Z,21.57
2019-04-07T07:03:29.139Z,21.23
2019-04-07T07:06:11.107Z,20.53
2019-04-07T07:08:47.520Z,20.30
2019-04-07T07:11:55.120Z,20.10
2019-04-07T07:15:00.926Z,20.20
2019-04-07T07:17:47.826Z,20.10
2019-04-07T07:20:50.547Z,19.65
2019-04-07T07:23:25.310Z,19.07
2019-04-07T07:25:56.459Z,18.35
2019-04-07T07:28:27.321Z,19.12
2019-04-07T07:30:57.929Z,20.20
2019-04-07T07:33:28.043Z,16.20
2019-04-07T07:35:59.300Z,17.15
2019-04-07T07:38:32.155Z,16.60
2019-04-07T07:41:03.432Z,16.27
2019-04-07T07:43:33.755Z,14.00
2019-04-07T07:46:03.753Z,15.85
2019-04-07T07:48:34.558Z,15.40
2019-04-07T07:51:07.141Z,15.95
2019-04-07T07:53:36.205Z,14.98
2019-04-07T07:56:10.594Z,15.35
2019-04-07T07:58:38.505Z,16.12
2019-04-07T08:01:11.286Z,14.83
2019-04-07T08:03:41.333Z,15.70
2019-04-07T08:06:11.826Z,13.08
2019-04-07T08:08:45.191Z,7.45
2019-04-07T08:11:15.703Z,7.83
2019-04-07T08:13:46.146Z,8.30
2019-04-07T08:16:17.404Z,7.47
2019-04-07T08:18:47.926Z,7.10
2019-04-07T08:21:19.947Z,6.55
2019-04-07T08:23:49.598Z,6.65
2019-04-07T08:26:20.427Z,7.17
2019-04-07T08:28:51.409Z,6.47
2019-04-07T08:31:21.682Z,6.35
2019-04-07T08:33:52.750Z,6.12
2019-04-07T08:36:23.777Z,6.17
2019-04-07T08:38:56.093Z,5.60
2019-04-07T08:41:26.714Z,5.70
2019-04-07T08:43:57.860Z,5.90
2019-04-07T08:46:35.215Z,5.20
2019-04-07T08:49:04.949Z,5.35
2019-04-07T08:51:35.133Z,5.45
2019-04-07T08:54:07.257Z,4.80
2019-04-07T08:56:37.762Z,5.92
2019-04-07T08:59:11.863Z,5.10
2019-04-07T09:01:41.557Z,5.13
2019-04-07T09:04:15.087Z,5.40
2019-04-07T09:06:43.837Z,5.20
2019-04-07T09:09:14.053Z,4.70
2019-04-07T09:11:44.777Z,4.65
2019-04-07T09:14:16.399Z,4.17
2019-04-07T09:17:06.998Z,4.62
2019-04-07T09:20:10.246Z,4.30
2019-04-07T09:22:56.079Z,3.62
2019-04-07T09:25:35.892Z,3.52
2019-04-07T09:28:24.079Z,3.77
2019-04-07T09:31:13.049Z,3.02
2019-04-07T09:34:03.048Z,3.47
2019-04-07T09:36:53.095Z,3.60
2019-04-07T09:39:54.774Z,3.00
2019-04-07T09:42:28.048Z,3.30
2019-04-07T09:45:07.397Z,3.30
2019-04-07T09:48:10.505Z,3.83
2019-04-07T09:50:55.454Z,3.23
2019-04-07T09:53:50.213Z,3.22
2019-04-07T09:56:37.462Z,3.50
2019-04-07T09:59:25.303Z,3.70
2019-04-07T10:02:06.743Z,2.92
2019-04-07T10:04:42.813Z,3.30
2019-04-07T10:07:42.811Z,3.10
2019-04-07T10:10:41.476Z,3.55
2019-04-07T10:13:42.721Z,6.00
2019-04-07T10:16:27.093Z,2.98
2019-04-07T10:19:16.313Z,3.40
2019-04-07T10:22:03.574Z,3.13
2019-04-07T10:24:58.564Z,3.10
2019-04-07T10:27:59.592Z,2.77
2019-04-07T10:30:43.928Z,2.40
2019-04-07T10:33:40.557Z,3.47
2019-04-07T10:36:28.645Z,2.77
2019-04-07T10:39:16.341Z,3.67
2019-04-07T10:41:57.920Z,3.52
2019-04-07T10:44:46.948Z,3.27
2019-04-07T10:47:32.198Z,3.37
2019-04-07T10:50:11.439Z,3.70
2019-04-07T10:53:00.228Z,3.40
2019-04-07T10:55:45.219Z,2.97
2019-04-07T10:58:34.516Z,2.90
2019-04-07T11:01:30.070Z,3.10
2019-04-07T11:04:17.951Z,3.77
2019-04-07T11:07:19.051Z,3.50
2019-04-07T11:10:01.247Z,3.85
2019-04-07T11:13:03.116Z,3.50
2019-04-07T11:15:44.919Z,3.40
2019-04-07T11:18:25.427Z,3.25
2019-04-07T11:21:14.354Z,3.50
2019-04-07T11:24:03.984Z,3.12
2019-04-07T11:26:51.752Z,3.80
2019-04-07T11:29:39.393Z,3.60
2019-04-07T11:32:28.236Z,3.63
2019-04-07T11:35:15.343Z,3.33
2019-04-07T11:37:55.512Z,3.83
2019-04-07T11:40:45.904Z,3.73
2019-04-07T11:43:17.978Z,3.73
2019-04-07T11:46:00.084Z,3.57
2019-04-07T11:49:00.872Z,4.30
2019-04-07T11:51:36.962Z,4.10
2019-04-07T11:54:18.532Z,4.17
2019-04-07T11:56:57.450Z,3.80
2019-04-07T11:59:50.256Z,4.33
2019-04-07T12:02:35.298Z,3.87
2019-04-07T12:05:31.106Z,4.17
2019-04-07T12:08:36.136Z,4.17
2019-04-07T12:11:26.488Z,3.70
2019-04-07T12:14:31.925Z,4.33
2019-04-07T12:17:17.735Z,3.73
2019-04-07T12:20:10.769Z,4.20
2019-04-07T12:22:52.860Z,4.60
2019-04-07T12:25:43.137Z,4.43
2019-04-07T12:28:31.336Z,3.40
2019-04-07T12:31:07.537Z,4.20
2019-04-07T12:33:50.645Z,3.63
2019-04-07T12:36:31.086Z,3.77
2019-04-07T12:39:24.054Z,3.80
2019-04-07T12:42:18.880Z,4.37
2019-04-07T12:44:55.574Z,3.97
2019-04-07T12:47:50.757Z,3.53
2019-04-07T12:50:39.735Z,4.77
2019-04-07T12:53:26.313Z,5.20
2019-04-07T12:56:15.750Z,4.47
2019-04-07T12:59:00.214Z,4.73
2019-04-07T13:01:47.068Z,5.07
2019-04-07T13:04:39.686Z,4.50
2019-04-07T13:07:19.410Z,4.60
2019-04-07T13:10:02.959Z,6.87
2019-04-07T13:12:43.305Z,4.80
2019-04-07T13:15:32.255Z,6.90
2019-04-07T13:18:10.567Z,6.17
2019-04-07T13:21:10.388Z,5.30
2019-04-07T13:24:28.881Z,5.30
2019-04-07T13:27:14.175Z,5.40
2019-04-07T13:29:56.575Z,5.17
2019-04-07T13:32:41.813Z,5.20
2019-04-07T13:35:37.443Z,5.50
2019-04-07T13:38:35.820Z,5.30
2019-04-07T13:41:38.717Z,5.23
2019-04-07T13:44:36.753Z,5.33
2019-04-07T13:47:29.141Z,5.70
2019-04-07T13:50:20.367Z,5.63
2019-04-07T13:53:20.710Z,5.50
2019-04-07T13:56:03.008Z,6.17
2019-04-07T13:58:41.115Z,5.40
2019-04-07T14:01:25.695Z,5.83
2019-04-07T14:04:17.968Z,5.67
2019-04-07T14:07:00.355Z,6.30
2019-04-07T14:09:41.968Z,5.83
2019-04-07T14:12:19.577Z,6.43
2019-04-07T14:15:07.888Z,6.10
2019-04-07T14:17:51.415Z,5.83
2019-04-07T14:20:44.097Z,6.03
2019-04-07T14:23:32.123Z,6.10
2019-04-07T14:26:11.370Z,5.80
2019-04-07T14:29:01.935Z,5.53
2019-04-07T14:31:39.111Z,6.47
2019-04-07T14:34:31.616Z,5.83
2019-04-07T14:37:17.481Z,5.80
2019-04-07T14:40:01.442Z,6.43
2019-04-07T14:42:57.139Z,5.80
2019-04-07T14:45:44.546Z,5.47
2019-04-07T14:48:33.724Z,7.13
2019-04-07T14:51:21.827Z,6.20
2019-04-07T14:54:23.425Z,6.80
2019-04-07T14:57:25.520Z,7.20
2019-04-07T15:00:29.821Z,6.97
2019-04-07T15:03:00.847Z,6.87
2019-04-07T15:05:34.275Z,6.00
2019-04-07T15:08:24.761Z,6.77
2019-04-07T15:11:01.495Z,6.80
2019-04-07T15:13:32.111Z,6.87
2019-04-07T15:16:02.434Z,6.53
2019-04-07T15:18:32.651Z,6.70
2019-04-07T15:21:03.522Z,6.87
2019-04-07T15:23:33.634Z,6.30
2019-04-07T15:26:03.685Z,7.40
2019-04-07T15:28:34.103Z,8.03
2019-04-07T15:31:04.333Z,8.10
2019-04-07T15:33:35.184Z,7.70
2019-04-07T15:36:07.952Z,6.97
2019-04-07T15:38:40.224Z,7.27
2019-04-07T15:41:15.169Z,7.53
2019-04-07T15:43:41.184Z,7.70
2019-04-07T15:46:13.027Z,7.67
2019-04-07T15:48:48.256Z,7.53
2019-04-07T15:51:19.424Z,7.23
2019-04-07T15:53:51.619Z,7.97
2019-04-07T15:56:22.210Z,7.73
2019-04-07T15:58:52.840Z,7.57
2019-04-07T16:01:23.783Z,7.80
2019-04-07T16:03:54.837Z,8.00
2019-04-07T16:06:25.876Z,8.17
2019-04-07T16:08:59.418Z,7.87
2019-04-07T16:11:30.312Z,8.00
2019-04-07T16:14:00.041Z,8.60
2019-04-07T16:16:30.749Z,8.20
2019-04-07T16:19:01.418Z,8.67
2019-04-07T16:21:31.516Z,7.87
2019-04-07T16:24:04.054Z,8.20
2019-04-07T16:26:36.969Z,8.37
2019-04-07T16:29:08.071Z,7.60
2019-04-07T16:31:39.067Z,8.20
2019-04-07T16:34:10.317Z,7.53
2019-04-07T16:36:41.300Z,7.10
2019-04-07T16:39:11.555Z,8.40
2019-04-07T16:41:45.912Z,7.57
2019-04-07T16:44:15.957Z,8.20
2019-04-07T16:46:46.735Z,8.07
2019-04-07T16:49:19.016Z,7.37
2019-04-07T16:51:49.433Z,8.93
2019-04-07T16:54:19.936Z,8.07
2019-04-07T16:56:54.884Z,8.27
2019-04-07T16:59:22.335Z,8.67
2019-04-07T17:01:52.965Z,8.33
2019-04-07T17:04:23.109Z,9.90
2019-04-07T17:07:00.195Z,9.83
2019-04-07T17:09:28.042Z,12.73
2019-04-07T17:11:57.791Z,13.53
2019-04-07T17:14:31.946Z,9.37
2019-04-07T17:17:00.266Z,10.30
2019-04-07T17:19:32.013Z,8.87
2019-04-07T17:22:03.085Z,8.70
2019-04-07T17:24:33.438Z,8.30
2019-04-07T17:27:04.568Z,8.60
2019-04-07T17:29:34.843Z,9.27
2019-04-07T17:32:06.255Z,8.50
2019-04-07T17:34:36.839Z,9.00
2019-04-07T17:37:07.247Z,9.27
2019-04-07T17:39:55.883Z,40.30
2019-04-07T17:42:28.298Z,8.70
2019-04-07T17:45:11.830Z,8.20
2019-04-07T17:47:57.278Z,8.80
2019-04-07T17:50:45.459Z,8.63
2019-04-07T17:53:23.502Z,8.33
2019-04-07T17:56:10.782Z,8.17
2019-04-07T17:58:49.716Z,8.23
2019-04-07T18:01:55.424Z,8.83
2019-04-07T18:04:34.856Z,8.70
2019-04-07T18:07:23.623Z,9.67
2019-04-07T18:10:02.711Z,9.03
2019-04-07T18:12:40.154Z,9.70
2019-04-07T18:15:26.326Z,9.27
2019-04-07T18:18:18.678Z,8.87
2019-04-07T18:21:06.032Z,9.50
2019-04-07T18:23:59.792Z,9.33
2019-04-07T18:26:40.458Z,9.77
2019-04-07T18:29:17.215Z,9.03
2019-04-07T18:32:07.562Z,9.73
2019-04-07T18:34:57.043Z,10.67
2019-04-07T18:37:44.280Z,9.97
2019-04-07T18:40:35.120Z,10.53
2019-04-07T18:43:23.001Z,10.47
2019-04-07T18:46:16.953Z,10.60
2019-04-07T18:49:15.795Z,9.43
2019-04-07T18:51:58.080Z,8.80
2019-04-07T18:54:46.481Z,10.00
2019-04-07T18:57:37.154Z,9.20
2019-04-07T19:00:42.378Z,10.10
2019-04-07T19:03:51.944Z,10.30
2019-04-07T19:06:47.653Z,8.60
2019-04-07T19:09:35.923Z,10.30
2019-04-07T19:12:24.714Z,10.50
2019-04-07T19:15:29.855Z,10.80
2019-04-07T19:18:24.811Z,10.40
2019-04-07T19:21:13.811Z,9.93
2019-04-07T19:24:03.101Z,9.57
2019-04-07T19:27:11.864Z,9.97
2019-04-07T19:29:52.130Z,9.97
2019-04-07T19:32:29.250Z,10.30
2019-04-07T19:35:25.057Z,9.73
2019-04-07T19:38:20.650Z,10.00
2019-04-07T19:41:07.198Z,9.93
2019-04-07T19:43:55.639Z,9.90
2019-04-07T19:46:38.693Z,9.03
2019-04-07T19:49:20.584Z,8.87
2019-04-07T19:52:09.118Z,8.93
2019-04-07T19:54:51.325Z,9.77
2019-04-07T19:57:30.399Z,10.13
2019-04-07T20:00:14.236Z,9.50
2019-04-07T20:03:09.683Z,10.33
2019-04-07T20:05:51.617Z,10.53
2019-04-07T20:08:42.094Z,10.40
2019-04-07T20:11:29.601Z,10.83
2019-04-07T20:14:10.364Z,9.90
2019-04-07T20:16:55.605Z,10.93
2019-04-07T20:19:37.263Z,10.73
2019-04-07T20:22:24.996Z,10.37
2019-04-07T20:25:15.732Z,10.60
2019-04-07T20:28:06.925Z,11.23
2019-04-07T20:30:59.992Z,11.20
2019-04-07T20:33:46.916Z,12.00
2019-04-07T20:36:44.432Z,12.90
2019-04-07T20:39:21.350Z,12.60
2019-04-07T20:42:00.910Z,12.37
2019-04-07T20:44:39.911Z,12.73
2019-04-07T20:47:21.875Z,11.47
2019-04-07T20:50:20.073Z,10.80
2019-04-07T20:53:14.590Z,12.00
2019-04-07T20:56:11.512Z,12.73
2019-04-07T20:59:03.240Z,13.10
2019-04-07T21:02:04.486Z,12.63
2019-04-07T21:04:51.486Z,12.63
2019-04-07T21:07:35.482Z,12.70
2019-04-07T21:10:23.152Z,13.23
2019-04-07T21:12:58.897Z,13.20
2019-04-07T21:15:50.598Z,12.40
2019-04-07T21:18:33.963Z,11.20
2019-04-07T21:21:22.139Z,10.50
2019-04-07T21:24:06.288Z,11.03
2019-04-07T21:26:42.594Z,11.30
2019-04-07T21:29:22.453Z,12.57
2019-04-07T21:31:59.768Z,12.30
2019-04-07T21:34:56.241Z,12.00
2019-04-07T21:37:40.828Z,13.73
2019-04-07T21:40:17.529Z,12.93
2019-04-07T21:43:04.704Z,12.57
2019-04-07T21:45:50.375Z,12.87
2019-04-07T21:48:33.011Z,13.27
2019-04-07T21:51:28.977Z,12.77
2019-04-07T21:54:07.670Z,12.10
2019-04-07T21:57:06.013Z,12.50
2019-04-07T22:00:01.079Z,13.20
2019-04-07T22:02:49.250Z,12.67
2019-04-07T22:05:26.888Z,12.07
2019-04-07T22:08:09.566Z,12.93
2019-04-07T22:10:34.013Z,13.70
2019-04-07T22:13:06.649Z,12.13
2019-04-07T22:15:47.342Z,12.50
2019-04-07T22:18:08.982Z,13.17
2019-04-07T22:20:39.859Z,13.10
2019-04-07T22:23:10.091Z,13.27
2019-04-07T22:25:50.587Z,13.07
2019-04-07T22:28:20.795Z,12.40
2019-04-07T22:30:52.147Z,13.97
2019-04-07T22:33:25.191Z,13.43
2019-04-07T22:35:53.742Z,13.10
2019-04-07T22:38:23.907Z,13.43
2019-04-07T22:40:54.258Z,14.13
2019-04-07T22:43:24.987Z,13.93
2019-04-07T22:46:06.623Z,13.50
2019-04-07T22:48:28.070Z,13.87
2019-04-07T22:50:59.042Z,13.97
2019-04-07T22:53:31.376Z,12.57
2019-04-07T22:56:04.766Z,14.13
2019-04-07T22:58:33.288Z,14.37
2019-04-07T23:01:03.299Z,14.17
2019-04-07T23:03:33.452Z,12.93
2019-04-07T23:06:03.885Z,14.10
2019-04-07T23:08:34.949Z,14.63
2019-04-07T23:11:05.225Z,14.27
2019-04-07T23:13:35.502Z,14.67
2019-04-07T23:16:10.738Z,14.37
2019-04-07T23:18:38.032Z,15.57
2019-04-07T23:21:08.191Z,16.27
2019-04-07T23:23:39.883Z,16.87
2019-04-07T23:26:09.809Z,15.50
2019-04-07T23:28:40.618Z,15.83
2019-04-07T23:31:10.577Z,16.10
2019-04-07T23:33:40.507Z,16.17
2019-04-07T23:36:11.384Z,16.53
2019-04-07T23:38:41.682Z,15.73
2019-04-07T23:41:11.751Z,15.27
2019-04-07T23:43:42.060Z,15.53
2019-04-07T23:46:20.764Z,16.53
2019-04-07T23:48:44.127Z,16.10
2019-04-07T23:51:14.318Z,15.03
2019-04-07T23:54:20.330Z,16.87
2019-04-07T23:56:50.300Z,15.77
2019-04-07T23:59:20.725Z,16.13
